Time;durP1;ratioP1;P1;durP2;ratioP2;P2;SDS_P1;SDS_P2;PMS_P1;PMS_P2;Temp;Humidity;BMP_temperature;BMP_pressure;BME280_temperature;BME280_humidity;BME280_pressure;Samples;Min_cycle;Max_cycle;Signal;HPM_P1;HPM_P2
2022/09/09 00:01:20;;;;;;;9.13;3.60;;;15.30;99.90;;;;;;5093443;28;20082;-52
2022/09/09 00:04:21;;;;;;;10.52;3.17;;;15.30;99.90;;;;;;5073107;28;20148;-57
2022/09/09 00:07:02;;;;;;;9.68;2.60;;;15.30;99.90;;;;;;5081624;28;20049;-52
2022/09/09 00:09:29;;;;;;;13.98;3.63;;;15.30;99.90;;;;;;5113291;27;20043;-52
2022/09/09 00:12:03;;;;;;;6.00;3.28;;;15.30;99.90;;;;;;5107048;28;20039;-53
2022/09/09 00:14:47;;;;;;;8.05;3.70;;;15.30;99.90;;;;;;5093806;28;20126;-52
2022/09/09 00:17:35;;;;;;;7.90;2.45;;;15.30;99.90;;;;;;5102903;28;20055;-55
2022/09/09 00:20:04;;;;;;;11.52;3.58;;;15.30;99.90;;;;;;5112127;28;20188;-54
2022/09/09 00:22:32;;;;;;;4.35;2.90;;;15.20;99.90;;;;;;5095537;28;20123;-52
2022/09/09 00:25:16;;;;;;;9.38;3.00;;;15.20;99.90;;;;;;5110756;27;20287;-53
2022/09/09 00:27:47;;;;;;;9.48;4.05;;;15.10;99.90;;;;;;5101961;28;20028;-52
2022/09/09 00:30:20;;;;;;;4.47;3.03;;;15.10;99.90;;;;;;5103292;28;20111;-51
2022/09/09 00:32:47;;;;;;;10.90;3.03;;;15.10;99.90;;;;;;5096587;28;20051;-52
2022/09/09 00:35:23;;;;;;;7.35;2.50;;;15.00;99.90;;;;;;5109161;28;20047;-52
2022/09/09 00:37:53;;;;;;;10.73;2.70;;;15.00;99.90;;;;;;5077546;28;20513;-52
2022/09/09 00:40:33;;;;;;;9.02;3.30;;;15.00;99.90;;;;;;5094696;28;20155;-54
2022/09/09 00:43:16;;;;;;;7.35;3.63;;;15.00;99.90;;;;;;5100981;28;20099;-53
2022/09/09 00:46:07;;;;;;;10.00;2.70;;;15.00;99.90;;;;;;5074464;28;20041;-52
2022/09/09 00:48:59;;;;;;;9.27;3.13;;;15.00;99.90;;;;;;5095072;28;20051;-53
2022/09/09 00:51:50;;;;;;;10.25;3.03;;;15.10;99.90;;;;;;5108696;28;20770;-53
2022/09/09 00:54:39;;;;;;;11.40;3.05;;;15.10;99.90;;;;;;5097473;28;20042;-52
2022/09/09 00:57:17;;;;;;;9.02;2.55;;;15.10;99.90;;;;;;5095068;28;20114;-52
2022/09/09 00:59:48;;;;;;;10.20;3.05;;;15.10;99.90;;;;;;5112349;28;20035;-55
2022/09/09 01:02:18;;;;;;;5.88;3.88;;;15.10;99.90;;;;;;5096260;28;20093;-52
2022/09/09 01:04:44;;;;;;;6.40;3.47;;;15.10;99.90;;;;;;5100165;28;20533;-53
2022/09/09 01:07:17;;;;;;;5.63;3.05;;;15.10;99.90;;;;;;5101937;28;20031;-52
2022/09/09 01:09:59;;;;;;;10.45;3.72;;;15.10;99.90;;;;;;5106512;28;20111;-54
2022/09/09 01:12:43;;;;;;;8.57;3.47;;;15.10;99.90;;;;;;5096443;28;20510;-52
2022/09/09 01:15:22;;;;;;;8.18;4.30;;;15.10;99.90;;;;;;5099301;28;20114;-52
2022/09/09 01:18:12;;;;;;;6.63;3.90;;;15.10;99.90;;;;;;5097907;28;20040;-52
2022/09/09 01:21:03;;;;;;;6.57;4.32;;;15.10;99.90;;;;;;5093530;28;20036;-54
2022/09/09 01:23:42;;;;;;;8.98;3.80;;;15.10;99.90;;;;;;5069922;28;20049;-55
2022/09/09 01:26:33;;;;;;;5.05;3.75;;;15.10;99.90;;;;;;5100460;28;20031;-53
2022/09/09 01:28:59;;;;;;;5.93;4.25;;;15.10;99.90;;;;;;5098696;28;20046;-53
2022/09/09 01:31:41;;;;;;;7.55;3.90;;;15.20;99.90;;;;;;5103162;28;20707;-54
2022/09/09 01:34:14;;;;;;;4.93;4.40;;;15.10;99.90;;;;;;5091157;28;20496;-54
2022/09/09 01:36:50;;;;;;;4.53;3.47;;;15.10;99.90;;;;;;5076479;28;20124;-52
2022/09/09 01:39:15;;;;;;;10.73;3.83;;;15.10;99.90;;;;;;5080661;28;20039;-54
2022/09/09 01:41:41;;;;;;;13.23;4.22;;;15.10;99.90;;;;;;5091002;28;20455;-52
2022/09/09 01:44:07;;;;;;;6.15;4.35;;;15.10;99.90;;;;;;5091355;28;20036;-55
2022/09/09 01:46:33;;;;;;;7.20;3.80;;;15.10;99.90;;;;;;5082090;28;20047;-51
2022/09/09 01:49:02;;;;;;;8.65;3.95;;;15.00;99.90;;;;;;5083879;28;20028;-53
2022/09/09 01:51:28;;;;;;;11.52;4.07;;;15.00;99.90;;;;;;5091792;28;20040;-53
2022/09/09 01:53:53;;;;;;;6.97;3.92;;;15.00;99.90;;;;;;5090512;28;20042;-53
2022/09/09 01:56:39;;;;;;;4.78;4.00;;;15.00;99.90;;;;;;5089636;28;20031;-52
2022/09/09 01:59:35;;;;;;;6.68;4.15;;;15.00;99.90;;;;;;5091073;28;20067;-52
2022/09/09 02:02:08;;;;;;;8.23;3.65;;;15.00;99.90;;;;;;5088966;28;20405;-54
2022/09/09 02:04:46;;;;;;;7.43;3.63;;;15.00;99.90;;;;;;5107289;28;20053;-56
2022/09/09 02:07:50;;;;;;;8.85;4.28;;;15.00;99.90;;;;;;5095528;28;20036;-52
2022/09/09 02:10:28;;;;;;;5.28;3.42;;;15.00;99.90;;;;;;5048011;28;20045;-52
2022/09/09 02:13:05;;;;;;;9.90;3.83;;;15.00;99.90;;;;;;5060276;28;20045;-53
2022/09/09 02:15:38;;;;;;;5.60;4.10;;;15.00;99.90;;;;;;5051135;28;20049;-53
2022/09/09 02:18:08;;;;;;;5.88;4.18;;;15.00;99.90;;;;;;5046630;28;20080;-54
2022/09/09 02:20:38;;;;;;;4.70;3.72;;;15.00;99.90;;;;;;5049295;28;20045;-52
2022/09/09 02:23:08;;;;;;;8.32;3.72;;;15.00;99.90;;;;;;5046800;28;20059;-52
2022/09/09 02:25:36;;;;;;;4.22;3.72;;;14.90;99.90;;;;;;5048098;28;20033;-52
2022/09/09 02:28:05;;;;;;;6.22;4.70;;;14.90;99.90;;;;;;5050555;28;20066;-52
2022/09/09 02:30:34;;;;;;;4.10;3.75;;;14.90;99.90;;;;;;5054709;28;20125;-53
2022/09/09 02:33:02;;;;;;;4.60;3.72;;;14.90;99.90;;;;;;5059614;28;20049;-53
2022/09/09 02:35:30;;;;;;;3.80;3.38;;;14.90;99.90;;;;;;5061995;28;20582;-52
2022/09/09 02:38:00;;;;;;;6.90;3.40;;;14.90;99.90;;;;;;5045503;28;20033;-51
2022/09/09 02:40:26;;;;;;;4.97;3.70;;;14.90;99.90;;;;;;5029710;28;20067;-52
2022/09/09 02:42:53;;;;;;;6.65;3.60;;;14.80;99.90;;;;;;5051859;28;20037;-52
2022/09/09 02:45:24;;;;;;;5.22;2.67;;;14.80;99.90;;;;;;5047322;28;20515;-53
2022/09/09 02:48:04;;;;;;;2.65;1.55;;;14.80;99.90;;;;;;5103618;28;20048;-52
2022/09/09 02:50:43;;;;;;;2.88;1.38;;;14.70;99.90;;;;;;5106656;28;20559;-53
2022/09/09 02:53:17;;;;;;;0.88;0.47;;;14.70;99.90;;;;;;5079477;28;20430;-53
2022/09/09 02:56:03;;;;;;;2.72;1.00;;;14.60;99.90;;;;;;5074348;28;20047;-52
2022/09/09 02:58:29;;;;;;;1.55;0.40;;;14.60;99.90;;;;;;5075155;28;20165;-53
2022/09/09 03:00:57;;;;;;;3.63;1.08;;;14.50;99.90;;;;;;5109272;28;20123;-51
2022/09/09 03:03:23;;;;;;;0.93;0.40;;;14.50;99.90;;;;;;5103879;28;20055;-52
2022/09/09 03:05:49;;;;;;;1.08;0.70;;;14.50;99.90;;;;;;5107343;28;20489;-51
2022/09/09 03:08:15;;;;;;;4.72;0.50;;;14.50;99.90;;;;;;5094149;28;20108;-53
2022/09/09 03:10:41;;;;;;;;;;;14.50;99.90;;;;;;5091168;28;20032;-51
2022/09/09 03:13:07;;;;;;;1.33;0.50;;;14.50;99.90;;;;;;5099247;28;20367;-52
2022/09/09 03:15:33;;;;;;;2.20;1.40;;;14.50;99.90;;;;;;5091476;28;20119;-52
2022/09/09 03:17:59;;;;;;;4.10;3.10;;;14.50;99.90;;;;;;5104346;28;20039;-52
2022/09/09 03:20:27;;;;;;;5.80;3.97;;;14.50;99.90;;;;;;5097221;28;20561;-53
2022/09/09 03:22:53;;;;;;;8.02;5.18;;;14.50;99.90;;;;;;5107717;28;20523;-53
2022/09/09 03:25:20;;;;;;;14.50;6.63;;;14.50;99.90;;;;;;5090919;28;20492;-55
2022/09/09 03:27:46;;;;;;;10.88;7.70;;;14.50;99.90;;;;;;5097307;28;20051;-51
2022/09/09 03:30:12;;;;;;;11.75;7.45;;;14.50;99.90;;;;;;5094091;28;20036;-53
2022/09/09 03:32:37;;;;;;;12.00;8.30;;;14.50;99.90;;;;;;5071385;28;20049;-51
2022/09/09 03:35:03;;;;;;;15.93;9.55;;;14.50;99.90;;;;;;5069434;28;20040;-53
2022/09/09 03:37:29;;;;;;;14.85;9.77;;;14.50;99.90;;;;;;5079295;28;20143;-53
2022/09/09 03:39:55;;;;;;;13.05;9.95;;;14.50;99.90;;;;;;5088503;28;20118;-51
2022/09/09 03:42:21;;;;;;;11.98;8.82;;;14.50;99.90;;;;;;5071111;28;20044;-53
2022/09/09 03:44:49;;;;;;;10.48;9.00;;;14.50;99.90;;;;;;5069331;28;20413;-54
2022/09/09 03:47:17;;;;;;;11.13;8.20;;;14.60;99.90;;;;;;5068403;28;20052;-52
2022/09/09 03:49:43;;;;;;;11.43;8.15;;;14.50;99.90;;;;;;5069669;28;20033;-51
2022/09/09 03:52:09;;;;;;;13.48;9.48;;;14.60;99.90;;;;;;5081455;28;20403;-52
2022/09/09 03:54:35;;;;;;;11.25;8.50;;;14.50;99.90;;;;;;5088876;28;20040;-52
2022/09/09 03:57:01;;;;;;;11.35;8.25;;;14.60;99.90;;;;;;5089424;28;20081;-54
2022/09/09 03:59:27;;;;;;;13.90;8.27;;;14.60;99.90;;;;;;5089744;28;20044;-52
2022/09/09 04:01:53;;;;;;;12.95;9.63;;;14.60;99.90;;;;;;5095172;28;20067;-52
2022/09/09 04:04:19;;;;;;;10.07;8.88;;;14.60;99.90;;;;;;5109970;28;20480;-52
2022/09/09 04:06:45;;;;;;;11.18;8.55;;;14.60;99.90;;;;;;5106819;28;20342;-51
2022/09/09 04:09:11;;;;;;;10.10;7.72;;;14.50;99.90;;;;;;5110394;28;20028;-52
2022/09/09 04:11:37;;;;;;;11.65;7.25;;;14.50;99.90;;;;;;5096016;28;20173;-52
2022/09/09 04:14:05;;;;;;;9.02;8.10;;;14.60;99.90;;;;;;5093734;28;20036;-52
2022/09/09 04:16:32;;;;;;;8.73;7.78;;;14.50;99.90;;;;;;5097594;28;20036;-52
2022/09/09 04:18:58;;;;;;;10.38;7.65;;;14.50;99.90;;;;;;5104911;28;20161;-51
2022/09/09 04:21:23;;;;;;;9.40;7.32;;;14.50;99.90;;;;;;5094784;28;20074;-51
2022/09/09 04:23:49;;;;;;;8.65;6.22;;;14.50;99.90;;;;;;5091312;28;20097;-52
2022/09/09 04:26:14;;;;;;;12.07;7.53;;;14.50;99.90;;;;;;5109580;28;20043;-54
2022/09/09 04:28:40;;;;;;;7.30;6.35;;;14.50;99.90;;;;;;5105471;28;20028;-52
2022/09/09 04:31:19;;;;;;;10.23;6.78;;;14.40;99.90;;;;;;5102016;28;20036;-52
2022/09/09 04:33:46;;;;;;;13.35;7.80;;;14.50;99.90;;;;;;5080056;28;20048;-52
2022/09/09 04:36:12;;;;;;;7.47;6.70;;;14.40;99.90;;;;;;5076087;28;20040;-52
2022/09/09 04:38:38;;;;;;;7.65;5.68;;;14.40;99.90;;;;;;5109292;28;20036;-52
2022/09/09 04:41:03;;;;;;;7.10;5.55;;;14.40;99.90;;;;;;5095319;28;20036;-52
2022/09/09 04:43:30;;;;;;;8.80;6.00;;;14.40;99.90;;;;;;5086271;28;20481;-54
2022/09/09 04:45:56;;;;;;;8.90;6.00;;;14.40;99.90;;;;;;5083698;28;20046;-52
2022/09/09 04:48:22;;;;;;;9.20;5.30;;;14.40;99.90;;;;;;5112900;28;20118;-53
2022/09/09 04:51:09;;;;;;;6.72;5.78;;;14.40;99.90;;;;;;5111027;28;20403;-55
2022/09/09 04:53:35;;;;;;;7.50;6.00;;;14.40;99.90;;;;;;5109103;28;20043;-51
2022/09/09 04:56:04;;;;;;;5.40;4.78;;;14.40;99.90;;;;;;5103530;28;20043;-52
2022/09/09 04:58:30;;;;;;;6.30;4.78;;;14.30;99.90;;;;;;5076250;28;20040;-51
2022/09/09 05:01:02;;;;;;;5.35;4.85;;;14.30;99.90;;;;;;5081167;28;20038;-52
2022/09/09 05:03:28;;;;;;;5.70;5.13;;;14.30;99.90;;;;;;5108863;28;20085;-53
2022/09/09 05:05:54;;;;;;;4.97;4.53;;;14.30;99.90;;;;;;5098275;28;20035;-54
2022/09/09 05:08:20;;;;;;;5.23;4.73;;;14.30;99.90;;;;;;5105526;28;20515;-52
2022/09/09 05:10:46;;;;;;;8.77;4.45;;;14.30;99.90;;;;;;5101011;28;20309;-52
2022/09/09 05:13:11;;;;;;;8.20;5.15;;;14.30;99.90;;;;;;5108314;28;20546;-52
2022/09/09 05:15:37;;;;;;;5.60;4.45;;;14.20;99.90;;;;;;5089249;28;20442;-52
2022/09/09 05:18:02;;;;;;;7.30;4.65;;;14.20;99.90;;;;;;5091588;28;20458;-52
2022/09/09 05:20:28;;;;;;;6.50;5.90;;;14.20;99.90;;;;;;5094006;28;20070;-53
2022/09/09 05:22:56;;;;;;;6.97;5.70;;;14.20;99.90;;;;;;5108571;28;20036;-55
2022/09/09 05:25:22;;;;;;;5.07;4.57;;;14.20;99.90;;;;;;5096815;28;20505;-52
2022/09/09 05:27:49;;;;;;;5.97;5.35;;;14.20;99.90;;;;;;5088515;28;20111;-54
2022/09/09 05:30:15;;;;;;;5.30;4.35;;;14.10;99.90;;;;;;5076357;28;20040;-52
2022/09/09 05:32:40;;;;;;;8.20;5.38;;;14.10;99.90;;;;;;5070873;28;20574;-52
2022/09/09 05:35:06;;;;;;;5.43;4.82;;;14.10;99.90;;;;;;5070926;28;20525;-52
2022/09/09 05:37:32;;;;;;;6.70;5.43;;;14.10;99.90;;;;;;5079905;28;20035;-51
2022/09/09 05:39:57;;;;;;;7.05;5.30;;;14.10;99.90;;;;;;5093648;28;20084;-52
2022/09/09 05:42:23;;;;;;;5.57;4.60;;;14.20;99.90;;;;;;5108619;28;20042;-52
2022/09/09 05:44:50;;;;;;;10.73;5.75;;;14.20;99.90;;;;;;5096291;28;20434;-54
2022/09/09 05:47:17;;;;;;;8.60;5.35;;;14.20;99.90;;;;;;5090509;28;20051;-52
2022/09/09 05:49:42;;;;;;;6.13;5.47;;;14.30;99.90;;;;;;5091389;28;20451;-52
2022/09/09 05:52:09;;;;;;;6.40;4.85;;;14.30;99.90;;;;;;5077454;28;20040;-52
2022/09/09 05:54:35;;;;;;;5.75;5.18;;;14.40;99.90;;;;;;5074522;28;20121;-53
2022/09/09 05:57:00;;;;;;;9.93;5.53;;;14.40;99.90;;;;;;5087372;28;20076;-52
2022/09/09 05:59:26;;;;;;;6.53;5.88;;;14.50;99.90;;;;;;5070969;28;20040;-53
2022/09/09 06:01:52;;;;;;;6.22;5.70;;;14.50;99.90;;;;;;5070852;28;20043;-54
2022/09/09 06:04:17;;;;;;;6.03;5.03;;;14.50;99.90;;;;;;5078361;28;20059;-55
2022/09/09 06:06:43;;;;;;;9.43;5.75;;;14.50;99.90;;;;;;5089672;28;20492;-52
2022/09/09 06:09:10;;;;;;;6.00;5.05;;;14.50;99.90;;;;;;5071214;28;20041;-52
2022/09/09 06:11:38;;;;;;;5.55;5.05;;;14.60;99.90;;;;;;5070629;28;20430;-51
2022/09/09 06:14:04;;;;;;;8.10;5.65;;;14.60;99.90;;;;;;5070252;28;20044;-52
2022/09/09 06:16:32;;;;;;;8.25;5.40;;;14.60;99.90;;;;;;5096160;28;20048;-53
2022/09/09 06:18:58;;;;;;;10.13;5.78;;;14.70;99.90;;;;;;5101352;28;20089;-52
2022/09/09 06:21:26;;;;;;;6.93;3.65;;;14.70;99.90;;;;;;5083439;28;20630;-53
2022/09/09 06:23:52;;;;;;;4.70;2.60;;;14.70;99.90;;;;;;5074532;28;20048;-53
2022/09/09 06:26:35;;;;;;;8.48;4.95;;;14.80;99.90;;;;;;5092026;28;20037;-56
2022/09/09 06:29:03;;;;;;;8.20;4.38;;;14.80;99.90;;;;;;5082729;28;20039;-52
2022/09/09 06:31:31;;;;;;;8.27;4.53;;;14.90;99.90;;;;;;5088689;28;20048;-55
2022/09/09 06:33:58;;;;;;;5.72;4.78;;;14.90;99.90;;;;;;5087871;28;20552;-55
2022/09/09 06:36:26;;;;;;;8.50;5.05;;;15.00;99.90;;;;;;5092099;28;20439;-55
2022/09/09 06:38:52;;;;;;;4.80;4.15;;;15.00;99.90;;;;;;5099925;28;20035;-55
2022/09/09 06:41:20;;;;;;;7.32;5.20;;;15.00;99.90;;;;;;5088684;28;20036;-56
2022/09/09 06:43:47;;;;;;;6.20;4.25;;;15.10;99.90;;;;;;5069527;28;20049;-54
2022/09/09 06:46:16;;;;;;;8.40;5.38;;;15.10;99.90;;;;;;5082844;28;20043;-56
2022/09/09 06:48:42;;;;;;;8.70;4.80;;;15.10;99.90;;;;;;5077697;28;20037;-57
2022/09/09 06:51:13;;;;;;;8.23;4.65;;;15.10;99.90;;;;;;5087675;28;20032;-55
2022/09/09 06:53:40;;;;;;;4.75;3.40;;;15.10;99.90;;;;;;5089341;28;20036;-53
2022/09/09 06:56:18;;;;;;;7.20;4.38;;;15.20;99.90;;;;;;5090838;28;20059;-56
2022/09/09 06:58:44;;;;;;;6.10;3.80;;;15.20;99.90;;;;;;5093605;28;20036;-52
2022/09/09 07:01:15;;;;;;;7.13;3.97;;;15.30;99.90;;;;;;5086541;28;20041;-54
2022/09/09 07:03:44;;;;;;;6.93;3.58;;;15.40;99.90;;;;;;5069507;28;20044;-58
2022/09/09 07:06:16;;;;;;;11.43;4.00;;;15.50;99.90;;;;;;5100379;28;20079;-58
2022/09/09 07:08:43;;;;;;;9.45;5.18;;;15.60;99.90;;;;;;5110410;28;20044;-56
2022/09/09 07:11:08;;;;;;;;;;;15.70;99.90;;;;;;5100158;28;20458;-57
2022/09/09 07:13:35;;;;;;;5.82;2.95;;;15.80;99.90;;;;;;5090432;28;19916;-51
2022/09/09 07:16:09;;;;;;;10.38;4.25;;;15.80;99.90;;;;;;5089690;28;20088;-56
2022/09/09 07:18:35;;;;;;;6.95;4.18;;;15.90;99.90;;;;;;5090864;28;20493;-57
2022/09/09 07:21:01;;;;;;;;;;;15.90;99.90;;;;;;5099471;28;20071;-56
2022/09/09 07:23:27;;;;;;;12.38;4.55;;;16.00;99.90;;;;;;5077443;28;20359;-56
2022/09/09 07:25:53;;;;;;;4.88;3.92;;;16.00;99.90;;;;;;5088118;28;20111;-58
2022/09/09 07:28:20;;;;;;;7.45;4.07;;;16.10;99.90;;;;;;5090858;28;20032;-57
2022/09/09 07:30:54;;;;;;;7.15;3.78;;;16.10;99.90;;;;;;5094820;28;20036;-57
2022/09/09 07:33:19;;;;;;;5.10;4.38;;;16.20;99.90;;;;;;5095838;28;20040;-56
2022/09/09 07:35:45;;;;;;;9.38;4.63;;;16.40;99.90;;;;;;5091274;28;20109;-52
2022/09/09 07:38:11;;;;;;;5.80;3.95;;;16.50;99.90;;;;;;5087324;28;20035;-52
2022/09/09 07:40:37;;;;;;;8.88;3.53;;;16.50;99.90;;;;;;5092621;28;20047;-55
2022/09/09 07:43:02;;;;;;;6.85;3.65;;;16.70;99.90;;;;;;5097577;28;20051;-58
2022/09/09 07:45:28;;;;;;;8.52;4.18;;;16.80;99.90;;;;;;5087166;28;20032;-57
2022/09/09 07:47:56;;;;;;;7.38;3.85;;;16.90;99.90;;;;;;5102700;28;20473;-55
2022/09/09 07:50:23;;;;;;;7.10;3.35;;;17.00;99.90;;;;;;5080172;28;20400;-53
2022/09/09 07:52:50;;;;;;;6.30;3.50;;;17.00;99.90;;;;;;5080667;28;20036;-53
2022/09/09 07:55:16;;;;;;;11.13;4.13;;;17.00;99.90;;;;;;5081895;28;20055;-53
2022/09/09 07:57:41;;;;;;;13.07;4.70;;;17.00;99.90;;;;;;5078290;28;20032;-52
2022/09/09 08:00:07;;;;;;;6.95;3.08;;;17.10;99.90;;;;;;5081970;28;20044;-56
2022/09/09 08:02:33;;;;;;;5.47;3.30;;;17.10;99.90;;;;;;5071552;28;20051;-55
2022/09/09 08:04:58;;;;;;;7.75;3.58;;;17.10;99.90;;;;;;5072065;28;20033;-53
2022/09/09 08:07:24;;;;;;;5.47;3.33;;;17.10;99.90;;;;;;5079975;28;20382;-57
2022/09/09 08:09:50;;;;;;;8.75;3.22;;;17.00;99.90;;;;;;5078233;28;20422;-52
2022/09/09 08:12:16;;;;;;;7.13;3.40;;;17.10;99.90;;;;;;5072559;28;20059;-53
2022/09/09 08:14:41;;;;;;;6.50;2.90;;;17.10;99.90;;;;;;5074240;28;20040;-53
2022/09/09 08:17:07;;;;;;;8.68;3.70;;;17.10;99.90;;;;;;5084999;28;20055;-55
2022/09/09 08:19:35;;;;;;;7.32;3.40;;;17.20;99.90;;;;;;5071654;28;20047;-57
2022/09/09 08:22:02;;;;;;;6.65;2.85;;;17.20;99.90;;;;;;5080564;28;20045;-53
2022/09/09 08:24:28;;;;;;;6.57;3.22;;;17.20;99.90;;;;;;5071244;28;20042;-57
2022/09/09 08:26:53;;;;;;;6.70;2.67;;;17.30;99.90;;;;;;5072073;28;20408;-55
2022/09/09 08:29:19;;;;;;;5.30;2.80;;;17.20;99.90;;;;;;5073231;28;20056;-53
2022/09/09 08:31:51;;;;;;;9.05;3.30;;;17.20;99.90;;;;;;5077216;28;20507;-51
2022/09/09 08:34:19;;;;;;;10.00;3.53;;;17.20;99.90;;;;;;5081211;28;20035;-52
2022/09/09 08:36:46;;;;;;;5.32;2.92;;;17.30;99.90;;;;;;5070621;28;20041;-53
2022/09/09 08:39:15;;;;;;;9.63;3.28;;;17.30;99.90;;;;;;5076364;28;20520;-53
2022/09/09 08:42:00;;;;;;;6.35;2.20;;;17.30;99.90;;;;;;5077964;28;20067;-55
2022/09/09 08:44:37;;;;;;;9.68;3.53;;;17.40;99.90;;;;;;5070743;28;20055;-52
2022/09/09 08:47:26;;;;;;;6.53;2.58;;;17.30;99.90;;;;;;5073180;28;20067;-52
2022/09/09 08:50:12;;;;;;;10.95;2.92;;;17.40;99.90;;;;;;5073619;28;20028;-52
2022/09/09 08:52:52;;;;;;;6.70;2.72;;;17.40;99.90;;;;;;5075578;28;20557;-54
2022/09/09 08:55:49;;;;;;;5.45;2.78;;;17.30;99.90;;;;;;5071539;28;20047;-52
2022/09/09 08:58:18;;;;;;;9.25;3.10;;;17.40;99.90;;;;;;5073987;28;20497;-56
2022/09/09 09:01:26;;;;;;;12.25;2.95;;;17.40;99.90;;;;;;5087359;28;20041;-52
2022/09/09 09:03:52;;;;;;;10.75;2.38;;;17.50;99.90;;;;;;5082668;28;20139;-53
2022/09/09 09:06:35;;;;;;;9.40;3.20;;;17.50;99.90;;;;;;5076193;28;20073;-54
2022/09/09 09:09:06;;;;;;;7.85;2.72;;;17.60;99.90;;;;;;5073861;28;20044;-54
2022/09/09 09:11:37;;;;;;;8.68;2.20;;;17.60;99.90;;;;;;5071040;28;20135;-52
2022/09/09 09:14:18;;;;;;;8.50;3.10;;;17.70;99.90;;;;;;5074209;28;20461;-52
2022/09/09 09:16:56;;;;;;;11.43;2.22;;;17.80;99.90;;;;;;5077153;28;20094;-52
2022/09/09 09:19:25;;;;;;;8.63;2.17;;;17.90;99.90;;;;;;5078636;28;20155;-54
2022/09/09 09:21:54;;;;;;;5.43;2.03;;;18.00;99.90;;;;;;5076277;28;20447;-53
2022/09/09 09:24:32;;;;;;;3.20;1.65;;;18.10;99.90;;;;;;5077181;28;20047;-56
2022/09/09 09:27:00;;;;;;;8.00;2.17;;;18.20;99.90;;;;;;5077956;28;20451;-58
2022/09/09 09:29:27;;;;;;;9.73;2.35;;;18.30;99.90;;;;;;5076844;28;20459;-55
2022/09/09 09:31:55;;;;;;;9.27;2.25;;;18.50;99.90;;;;;;5072906;28;20144;-56
2022/09/09 09:34:23;;;;;;;9.98;1.50;;;18.60;99.90;;;;;;5073674;28;20036;-54
2022/09/09 09:37:02;;;;;;;4.55;1.42;;;18.60;99.90;;;;;;5073167;28;20380;-55
2022/09/09 09:39:30;;;;;;;10.77;1.95;;;18.60;99.90;;;;;;5070198;28;20036;-54
2022/09/09 09:41:57;;;;;;;13.07;1.95;;;18.60;99.90;;;;;;5075837;28;20039;-53
2022/09/09 09:44:26;;;;;;;7.70;1.55;;;18.60;99.90;;;;;;5079100;28;20450;-53
2022/09/09 09:46:52;;;;;;;9.57;2.08;;;18.60;99.90;;;;;;5075507;28;20058;-55
2022/09/09 09:49:18;;;;;;;;;;;18.70;99.90;;;;;;5071593;28;20043;-57
2022/09/09 09:51:44;;;;;;;5.03;1.10;;;18.70;99.90;;;;;;5074513;28;19920;-54
2022/09/09 09:54:25;;;;;;;9.75;1.50;;;18.80;99.90;;;;;;5073352;28;20119;-57
2022/09/09 09:56:51;;;;;;;9.68;1.38;;;18.80;99.90;;;;;;5075236;28;20040;-55
2022/09/09 09:59:43;;;;;;;6.70;1.33;;;18.70;99.90;;;;;;5068479;28;20048;-54
2022/09/09 10:02:17;;;;;;;9.77;1.08;;;18.70;99.90;;;;;;5073003;28;20053;-53
2022/09/09 10:04:45;;;;;;;5.28;0.98;;;18.70;99.90;;;;;;5076719;28;20493;-56
2022/09/09 10:07:19;;;;;;;8.68;1.23;;;18.70;99.90;;;;;;5074112;28;20040;-54
2022/09/09 10:09:45;;;;;;;6.78;1.08;;;18.80;99.90;;;;;;5082969;28;20398;-54
2022/09/09 10:12:32;;;;;;;7.55;1.23;;;18.80;99.90;;;;;;5079382;28;20101;-55
2022/09/09 10:15:13;;;;;;;;;;;18.80;99.90;;;;;;5073361;28;20041;-53
2022/09/09 10:18:04;;;;;;;9.95;1.48;;;18.80;99.90;;;;;;5072886;28;19916;-53
2022/09/09 10:20:48;;;;;;;8.75;0.70;;;18.80;99.90;;;;;;5070743;28;20054;-53
2022/09/09 10:23:51;;;;;;;10.43;1.05;;;19.00;99.90;;;;;;5073602;28;20084;-54
2022/09/09 10:26:35;;;;;;;5.13;1.20;;;19.20;99.90;;;;;;5078262;28;20456;-53
2022/09/09 10:29:16;;;;;;;6.95;1.15;;;19.40;99.90;;;;;;5073538;28;20048;-55
2022/09/09 10:32:01;;;;;;;6.45;0.73;;;19.50;99.90;;;;;;5079296;28;20374;-53
2022/09/09 10:35:13;;;;;;;6.65;0.70;;;19.70;99.90;;;;;;5068900;28;20455;-55
2022/09/09 10:37:59;;;;;;;6.70;0.60;;;19.80;99.90;;;;;;5075148;28;20032;-56
2022/09/09 10:40:42;;;;;;;7.05;0.80;;;19.90;99.90;;;;;;5079684;28;20027;-55
2022/09/09 10:43:20;;;;;;;6.53;0.95;;;19.90;99.90;;;;;;5090473;28;20492;-54
2022/09/09 10:46:15;;;;;;;3.78;0.60;;;19.90;99.90;;;;;;5099565;28;20039;-56
2022/09/09 10:49:06;;;;;;;6.78;0.88;;;19.90;99.90;;;;;;5075545;28;20035;-53
2022/09/09 10:52:12;;;;;;;7.53;0.80;;;19.90;99.90;;;;;;5080871;28;20035;-53
2022/09/09 10:54:56;;;;;;;7.68;1.40;;;19.80;99.90;;;;;;5092146;28;20384;-54
2022/09/09 10:57:33;;;;;;;5.20;0.82;;;19.80;99.90;;;;;;5099319;28;20044;-55
2022/09/09 11:00:13;;;;;;;3.45;0.52;;;19.80;99.90;;;;;;5103012;28;20579;-55
2022/09/09 11:02:41;;;;;;;4.72;0.63;;;20.00;99.90;;;;;;5074450;28;20066;-53
2022/09/09 11:05:18;;;;;;;4.95;0.60;;;20.10;99.70;;;;;;5094067;28;20113;-52
2022/09/09 11:07:55;;;;;;;8.88;0.98;;;20.10;99.20;;;;;;5091116;28;20509;-53
2022/09/09 11:10:43;;;;;;;8.50;0.80;;;20.00;98.90;;;;;;5089942;28;20059;-52
2022/09/09 11:13:25;;;;;;;7.80;0.85;;;20.00;99.20;;;;;;5074684;28;20371;-53
2022/09/09 11:15:56;;;;;;;5.63;0.70;;;20.00;99.20;;;;;;5074080;28;20097;-54
2022/09/09 11:18:23;;;;;;;7.00;0.60;;;20.00;99.80;;;;;;5082318;28;20058;-54
2022/09/09 11:20:55;;;;;;;3.53;0.52;;;20.10;99.30;;;;;;5073806;28;20048;-53
2022/09/09 11:23:27;;;;;;;7.50;0.68;;;20.30;99.50;;;;;;5089301;28;20036;-52
2022/09/09 11:25:57;;;;;;;6.28;0.80;;;20.30;99.10;;;;;;5114433;28;20293;-55
2022/09/09 11:28:47;;;;;;;3.47;0.65;;;20.40;98.70;;;;;;5114913;28;20043;-53
2022/09/09 11:31:33;;;;;;;3.60;0.70;;;20.40;98.70;;;;;;5112538;27;20488;-53
2022/09/09 11:34:08;;;;;;;5.53;0.45;;;20.30;98.40;;;;;;5093939;28;20040;-54
2022/09/09 11:36:50;;;;;;;8.18;0.80;;;20.30;98.60;;;;;;5090089;28;20089;-54
2022/09/09 11:39:22;;;;;;;4.95;0.70;;;20.10;98.50;;;;;;5111409;28;20043;-54
2022/09/09 11:41:47;;;;;;;9.02;0.77;;;20.10;98.60;;;;;;5081477;28;20067;-55
2022/09/09 11:44:24;;;;;;;7.25;1.15;;;20.00;98.60;;;;;;5078275;28;20497;-53
2022/09/09 11:46:51;;;;;;;5.35;0.70;;;19.90;98.50;;;;;;5083330;28;20043;-54
2022/09/09 11:49:45;;;;;;;4.93;0.60;;;19.90;98.70;;;;;;5088790;28;20054;-52
2022/09/09 11:52:35;;;;;;;4.07;0.50;;;19.90;98.70;;;;;;5074650;28;20374;-53
2022/09/09 11:55:30;;;;;;;6.30;1.02;;;19.90;99.00;;;;;;5076241;28;20067;-56
2022/09/09 11:58:15;;;;;;;3.08;0.65;;;20.00;98.40;;;;;;5098517;28;20043;-52
2022/09/09 12:00:44;;;;;;;7.07;0.93;;;20.10;98.60;;;;;;5094937;28;20081;-53
2022/09/09 12:03:33;;;;;;;5.68;0.50;;;20.20;98.70;;;;;;5087653;28;20119;-53
2022/09/09 12:05:59;;;;;;;7.07;0.80;;;20.30;98.50;;;;;;5086704;28;20042;-52
2022/09/09 12:08:28;;;;;;;3.67;0.30;;;20.40;98.40;;;;;;5092733;28;20040;-55
2022/09/09 12:10:59;;;;;;;2.72;0.35;;;20.40;98.20;;;;;;5092203;28;20107;-52
2022/09/09 12:13:26;;;;;;;3.47;0.52;;;20.40;98.00;;;;;;5073874;28;20044;-53
2022/09/09 12:15:53;;;;;;;7.15;1.02;;;20.20;97.70;;;;;;5070561;28;20044;-53
2022/09/09 12:18:36;;;;;;;7.13;0.52;;;20.10;97.50;;;;;;5078016;28;20287;-54
2022/09/09 12:21:40;;;;;;;3.92;0.50;;;20.00;97.80;;;;;;5091883;28;20048;-57
2022/09/09 12:24:20;;;;;;;6.05;0.60;;;20.00;98.20;;;;;;5092008;28;20112;-55
2022/09/09 12:27:27;;;;;;;4.03;0.50;;;19.90;98.20;;;;;;5072493;28;20046;-57
2022/09/09 12:30:11;;;;;;;6.10;0.52;;;20.00;98.40;;;;;;5042144;28;20033;-57
2022/09/09 12:32:40;;;;;;;4.30;0.50;;;20.00;98.60;;;;;;5050875;28;20048;-56
2022/09/09 12:35:20;;;;;;;6.88;0.80;;;20.10;99.00;;;;;;5032493;28;20065;-57
2022/09/09 12:38:20;;;;;;;5.07;0.88;;;20.10;98.80;;;;;;5013209;28;20573;-55
2022/09/09 12:40:56;;;;;;;4.60;0.95;;;20.10;98.10;;;;;;5035784;28;20057;-58
2022/09/09 12:43:23;;;;;;;4.72;0.77;;;20.10;98.10;;;;;;5061544;28;20045;-56
2022/09/09 12:46:14;;;;;;;4.70;0.73;;;20.10;98.40;;;;;;5056942;28;20064;-56
2022/09/09 12:48:44;;;;;;;3.67;0.63;;;20.10;98.30;;;;;;5049159;28;20060;-57
2022/09/09 12:51:25;;;;;;;4.45;0.60;;;20.00;98.50;;;;;;5049418;28;20036;-58
2022/09/09 12:53:51;;;;;;;4.88;0.60;;;20.00;98.50;;;;;;5049771;28;20045;-57
2022/09/09 12:56:20;;;;;;;;;;;19.90;98.60;;;;;;5050262;28;20102;-57
2022/09/09 12:58:49;;;;;;;2.33;0.65;;;19.90;98.90;;;;;;5036353;28;20000;-58
2022/09/09 13:01:28;;;;;;;5.00;0.93;;;19.80;98.80;;;;;;5083614;28;20505;-58
2022/09/09 13:03:54;;;;;;;5.35;0.43;;;19.70;98.80;;;;;;5106180;28;20036;-58
2022/09/09 13:06:31;;;;;;;3.15;0.95;;;19.70;99.50;;;;;;5087663;28;20068;-58
2022/09/09 13:08:59;;;;;;;6.75;1.33;;;19.50;99.90;;;;;;5072086;28;20050;-60
2022/09/09 13:11:31;;;;;;;7.70;1.25;;;19.50;99.90;;;;;;5070263;28;20040;-58
2022/09/09 13:13:58;;;;;;;8.00;1.15;;;19.50;99.90;;;;;;5071558;28;20040;-60